Time;durP1;ratioP1;P1;durP2;ratioP2;P2;SDS_P1;SDS_P2;PMS_P1;PMS_P2;Temp;Humidity;BMP_temperature;BMP_pressure;BME280_temperature;BME280_humidity;BME280_pressure;Samples;Min_cycle;Max_cycle;Signal;HPM_P1;HPM_P2
2022/08/25 00:01:33;;;;;;;8.68;2.45;;;;;;;20.35;67.43;100371.13;20740689;28;20045;-70
2022/08/25 00:11:35;;;;;;;6.55;2.58;;;;;;;20.39;67.54;100367.34;20739606;28;20050;-70
2022/08/25 00:21:36;;;;;;;5.07;2.50;;;;;;;20.30;68.94;100374.03;20739756;28;20050;-70
2022/08/25 00:31:38;;;;;;;7.30;2.50;;;;;;;20.02;71.39;100379.16;20738841;28;20057;-70
2022/08/25 00:41:39;;;;;;;5.50;2.50;;;;;;;19.85;72.66;100377.47;20738728;28;20113;-71
2022/08/25 00:51:41;;;;;;;5.30;2.47;;;;;;;19.82;73.73;100381.13;20736052;28;20061;-70
2022/08/25 01:01:43;;;;;;;7.68;3.00;;;;;;;19.88;73.41;100366.63;20736781;28;20056;-71
2022/08/25 01:11:45;;;;;;;7.57;2.60;;;;;;;19.82;75.97;100377.59;20736216;28;20145;-71
2022/08/25 01:21:46;;;;;;;5.60;2.83;;;;;;;19.89;77.81;100395.81;20735744;28;20395;-71
2022/08/25 01:31:47;;;;;;;5.63;3.03;;;;;;;19.69;78.09;100386.25;20735063;28;20061;-71
2022/08/25 01:41:49;;;;;;;5.78;2.75;;;;;;;19.53;79.85;100381.81;20734215;28;20050;-71
2022/08/25 01:51:51;;;;;;;8.10;2.83;;;;;;;19.45;81.62;100383.09;20734338;28;20049;-71
2022/08/25 02:01:53;;;;;;;6.55;2.97;;;;;;;19.44;83.20;100385.78;20734170;28;20699;-71
2022/08/25 02:12:05;;;;;;;6.88;3.13;;;;;;;19.32;84.49;100387.31;20734450;28;20092;-71
2022/08/25 02:22:06;;;;;;;9.25;3.28;;;;;;;19.08;86.77;100384.13;20733471;28;20072;-71
2022/08/25 02:32:07;;;;;;;8.23;3.83;;;;;;;19.14;86.36;100380.28;20736633;28;20417;-71
2022/08/25 02:42:10;;;;;;;8.18;3.80;;;;;;;19.15;87.07;100377.56;20747062;28;20085;-71
2022/08/25 02:52:12;;;;;;;6.18;3.90;;;;;;;19.12;87.15;100375.06;20746653;28;20490;-70
2022/08/25 03:02:13;;;;;;;6.60;3.58;;;;;;;18.99;90.27;100381.94;20745827;28;20055;-70
2022/08/25 03:12:15;;;;;;;6.18;3.30;;;;;;;18.91;90.57;100378.81;20744890;28;20548;-71
2022/08/25 03:22:17;;;;;;;9.57;4.03;;;;;;;18.71;92.86;100378.00;20744123;28;20058;-71
2022/08/25 03:32:18;;;;;;;6.20;3.80;;;;;;;18.67;93.39;100371.09;20743487;28;20535;-70
2022/08/25 03:42:19;;;;;;;7.38;3.70;;;;;;;18.35;96.98;100353.25;20741621;28;20112;-70
2022/08/25 03:52:21;;;;;;;5.93;3.90;;;;;;;18.00;100.00;100355.81;20741674;28;20066;-70
2022/08/25 04:02:22;;;;;;;10.70;4.80;;;;;;;18.04;100.00;100361.84;20740504;28;20042;-72
2022/08/25 04:12:24;;;;;;;10.05;4.50;;;;;;;17.88;100.00;100374.94;20740258;28;20092;-71
2022/08/25 04:22:25;;;;;;;8.85;5.07;;;;;;;17.76;100.00;100379.00;20740050;28;20058;-70
2022/08/25 04:32:30;;;;;;;7.05;4.72;;;;;;;17.28;100.00;100382.03;20738141;28;20050;-71
2022/08/25 04:42:32;;;;;;;8.80;5.43;;;;;;;17.37;100.00;100385.13;20738026;28;20060;-72
2022/08/25 04:52:33;;;;;;;9.18;5.88;;;;;;;17.53;100.00;100380.00;20737290;28;20069;-71
2022/08/25 05:02:35;;;;;;;10.27;6.03;;;;;;;17.69;100.00;100365.16;20735732;28;20556;-71
2022/08/25 05:12:36;;;;;;;9.73;5.82;;;;;;;18.00;100.00;100369.06;20736222;28;20046;-71
2022/08/25 05:22:38;;;;;;;11.68;6.22;;;;;;;18.31;100.00;100367.63;20736847;28;20050;-71
2022/08/25 05:32:39;;;;;;;11.43;5.78;;;;;;;18.45;99.75;100376.63;20734630;28;20046;-71
2022/08/25 05:42:40;;;;;;;12.52;6.30;;;;;;;18.79;96.17;100376.78;20734645;28;20056;-71
2022/08/25 05:52:42;;;;;;;10.15;6.72;;;;;;;19.08;94.62;100359.38;20734409;28;20050;-71
2022/08/25 06:02:45;;;;;;;11.20;6.53;;;;;;;19.26;95.53;100357.56;20733146;28;20054;-71
2022/08/25 06:12:46;;;;;;;10.95;6.63;;;;;;;19.65;93.27;100349.31;20747163;28;20054;-69
2022/08/25 06:22:48;;;;;;;14.00;7.13;;;;;;;19.98;90.44;100349.28;20749208;28;20745;-69
2022/08/25 06:32:51;;;;;;;16.10;7.15;;;;;;;20.19;90.55;100334.75;20748234;28;20060;-69
2022/08/25 06:42:52;;;;;;;12.18;7.30;;;;;;;20.55;87.47;100330.97;20747158;28;20060;-69
2022/08/25 06:52:53;;;;;;;11.25;7.13;;;;;;;20.70;87.50;100329.22;20745757;28;20053;-69
2022/08/25 07:02:55;;;;;;;21.55;7.75;;;;;;;20.90;85.41;100326.25;20836509;28;20056;-69
2022/08/25 07:12:57;;;;;;;11.68;6.75;;;;;;;21.25;81.96;100329.41;20865840;28;20041;-68
2022/08/25 07:22:58;;;;;;;10.52;7.00;;;;;;;21.53;80.50;100325.09;20863811;28;20049;-69
2022/08/25 07:32:59;;;;;;;10.18;6.97;;;;;;;21.72;77.76;100320.31;20868311;28;20061;-68
2022/08/25 07:43:07;;;;;;;11.45;7.53;;;;;;;22.01;76.97;100314.94;20902486;28;20097;-70
2022/08/25 07:53:08;;;;;;;12.60;7.75;;;;;;;22.25;73.95;100332.03;20905742;28;20060;-67
2022/08/25 08:03:10;;;;;;;12.30;6.90;;;;;;;22.70;72.43;100318.41;20904885;28;20169;-67
2022/08/25 08:13:31;;;;;;;9.95;6.55;;;;;;;22.95;71.56;100318.50;20904412;28;20053;-67
2022/08/25 08:23:38;;;;;;;10.07;6.55;;;;;;;23.38;69.41;100323.53;20902081;28;20140;-67
2022/08/25 08:33:39;;;;;;;10.15;6.60;;;;;;;23.59;66.92;100318.47;20900673;28;20144;-70
2022/08/25 08:43:41;;;;;;;15.35;6.63;;;;;;;24.10;64.00;100310.38;20900939;28;20056;-70
2022/08/25 08:53:42;;;;;;;10.60;5.90;;;;;;;24.50;62.15;100296.72;20900874;28;20065;-71
2022/08/25 09:03:44;;;;;;;10.07;6.00;;;;;;;25.12;60.68;100291.06;20899257;28;20049;-71
2022/08/25 09:13:55;;;;;;;8.10;5.10;;;;;;;25.55;58.02;100280.50;20898342;28;20080;-72
2022/08/25 09:23:56;;;;;;;8.50;5.40;;;;;;;25.90;56.58;100275.97;20897967;28;20408;-72
2022/08/25 09:33:59;;;;;;;10.83;5.37;;;;;;;26.19;53.41;100258.31;20898127;28;20049;-72
2022/08/25 09:44:02;;;;;;;7.50;4.27;;;;;;;26.83;50.61;100244.84;20906155;28;20048;-72
2022/08/25 09:54:03;;;;;;;6.55;4.10;;;;;;;27.08;49.88;100227.47;20915337;28;20060;-71
2022/08/25 10:04:11;;;;;;;6.65;4.20;;;;;;;27.41;47.31;100216.56;20913918;28;20437;-71
2022/08/25 10:14:20;;;;;;;7.47;4.22;;;;;;;27.41;47.24;100206.66;20913088;28;20529;-71
2022/08/25 10:24:21;;;;;;;6.15;4.15;;;;;;;27.73;46.94;100200.22;20893750;28;20091;-68
2022/08/25 10:34:23;;;;;;;8.25;4.63;;;;;;;27.95;45.98;100186.53;20884662;28;20045;-68
2022/08/25 10:54:45;;;;;;;9.57;4.72;;;;;;;28.40;43.83;100168.94;20827916;28;20517;-68
2022/08/25 11:04:47;;;;;;;7.50;4.80;;;;;;;28.30;43.25;100153.63;20858352;28;20406;-68
2022/08/25 11:14:49;;;;;;;5.38;4.07;;;;;;;28.62;43.89;100144.38;20863140;28;20045;-68
2022/08/25 11:24:50;;;;;;;5.63;4.00;;;;;;;28.83;43.15;100142.31;20854053;28;20045;-68
2022/08/25 11:34:51;;;;;;;6.13;4.00;;;;;;;28.79;41.39;100135.50;20869437;28;20048;-68
2022/08/25 11:44:53;;;;;;;6.50;4.25;;;;;;;29.01;40.52;100117.31;20869966;28;20049;-68
2022/08/25 11:54:55;;;;;;;5.75;3.47;;;;;;;28.92;40.81;100102.00;20868597;28;20525;-68
2022/08/25 12:04:59;;;;;;;5.93;3.72;;;;;;;28.98;39.68;100090.63;20904159;28;20100;-68
2022/08/25 12:15:01;;;;;;;5.25;3.75;;;;;;;29.20;39.16;100090.25;20903469;28;20132;-68
2022/08/25 12:25:05;;;;;;;5.28;3.58;;;;;;;29.14;39.96;100080.06;20842964;28;20547;-68
2022/08/25 12:35:07;;;;;;;5.88;3.72;;;;;;;29.17;40.11;100078.91;20819933;28;20683;-69
2022/08/25 12:45:09;;;;;;;7.40;3.88;;;;;;;29.06;38.93;100072.72;20819052;28;20422;-69
2022/08/25 12:55:10;;;;;;;6.43;3.72;;;;;;;29.19;38.24;100072.38;20818406;28;20049;-69
2022/08/25 13:05:13;;;;;;;8.30;4.05;;;;;;;29.57;37.61;100051.53;20834104;23;20130;-77
2022/08/25 13:15:15;;;;;;;8.82;4.05;;;;;;;29.73;37.40;100048.13;20819044;28;20157;-73
2022/08/25 13:25:16;;;;;;;7.18;4.30;;;;;;;29.37;38.86;100029.25;20819366;28;20050;-73
2022/08/25 13:35:23;;;;;;;8.45;4.00;;;;;;;29.62;37.57;100024.94;20818493;28;20056;-73
2022/08/25 13:45:29;;;;;;;6.88;4.05;;;;;;;29.82;37.53;99999.44;20818689;28;20056;-73
2022/08/25 13:55:32;;;;;;;6.85;3.70;;;;;;;30.01;36.21;99998.41;20818088;28;20056;-73
2022/08/25 14:05:52;;;;;;;6.13;3.50;;;;;;;30.13;36.17;99980.09;20816750;28;20549;-74
2022/08/25 14:15:53;;;;;;;5.68;3.67;;;;;;;29.99;36.11;99972.56;20817083;28;20055;-72
2022/08/25 14:25:56;;;;;;;5.93;3.35;;;;;;;30.08;36.17;99966.19;20817095;28;20156;-72
2022/08/25 14:35:58;;;;;;;7.68;3.33;;;;;;;30.34;35.07;99956.25;20831310;28;20049;-72
2022/08/25 14:45:59;;;;;;;4.97;3.28;;;;;;;30.46;35.50;99955.94;20830911;28;20068;-72
2022/08/25 14:56:02;;;;;;;7.50;3.50;;;;;;;30.28;35.21;99948.78;20829923;28;20073;-73
2022/08/25 15:06:10;;;;;;;6.45;3.47;;;;;;;30.25;35.56;99938.31;20827812;28;20072;-72
2022/08/25 15:16:11;;;;;;;5.72;3.28;;;;;;;30.29;34.70;99926.19;20828761;28;20049;-72
2022/08/25 15:26:13;;;;;;;6.85;3.17;;;;;;;30.45;34.51;99916.44;20827550;28;20073;-73
2022/08/25 15:36:14;;;;;;;6.93;3.35;;;;;;;30.54;34.56;99912.75;20826668;28;20445;-73
2022/08/25 15:46:22;;;;;;;4.70;3.17;;;;;;;30.50;34.84;99906.81;20823355;28;20058;-72
2022/08/25 15:56:24;;;;;;;6.55;3.58;;;;;;;30.45;33.71;99895.66;20825519;28;20050;-73
2022/08/25 16:06:27;;;;;;;4.82;3.38;;;;;;;30.45;33.70;99897.53;20840080;28;20057;-72
2022/08/25 16:16:28;;;;;;;4.40;2.95;;;;;;;30.30;34.33;99895.44;20872271;28;20052;-74
2022/08/25 16:26:30;;;;;;;4.78;3.20;;;;;;;30.40;34.32;99901.56;20830419;28;20571;-73
2022/08/25 16:36:31;;;;;;;9.80;3.50;;;;;;;30.65;33.43;99888.94;20823274;28;20088;-73
2022/08/25 16:46:33;;;;;;;5.25;3.08;;;;;;;30.54;33.87;99883.03;20896958;28;20238;-72
2022/08/25 16:56:34;;;;;;;4.93;3.28;;;;;;;30.58;33.67;99885.22;20895791;28;20049;-73
2022/08/25 17:06:37;;;;;;;7.68;3.00;;;;;;;30.71;33.74;99882.09;20893331;28;20075;-72
2022/08/25 17:16:39;;;;;;;6.10;3.22;;;;;;;30.31;34.51;99880.94;20830257;28;20509;-72
2022/08/25 17:26:40;;;;;;;6.57;2.80;;;;;;;30.27;34.25;99879.56;20812676;28;20494;-72
2022/08/25 17:36:42;;;;;;;5.00;3.10;;;;;;;29.83;35.15;99876.13;20791082;28;20061;-71
2022/08/25 17:46:43;;;;;;;6.32;3.08;;;;;;;29.47;36.18;99886.19;20809356;28;20056;-72
2022/08/25 17:56:47;;;;;;;8.82;3.22;;;;;;;29.23;37.07;99884.16;20867322;28;20118;-71
2022/08/25 18:06:50;;;;;;;5.88;3.53;;;;;;;28.72;38.76;99891.09;20898575;28;20049;-71
2022/08/25 18:16:52;;;;;;;8.53;3.67;;;;;;;27.91;41.46;99893.63;20844088;28;20597;-71
2022/08/25 18:26:54;;;;;;;7.73;3.23;;;;;;;27.35;42.89;99912.28;20823750;28;20136;-71
2022/08/25 18:36:55;;;;;;;7.78;3.63;;;;;;;26.79;45.05;99914.81;20820628;28;20068;-71
2022/08/25 18:46:57;;;;;;;8.05;3.60;;;;;;;26.41;46.24;99905.69;20820543;28;20569;-71
2022/08/25 18:56:58;;;;;;;6.10;3.53;;;;;;;26.16;47.21;99912.41;20820379;28;20541;-70
2022/08/25 19:07:00;;;;;;;5.63;3.50;;;;;;;25.92;48.41;99919.88;20876119;23;20055;-78
2022/08/25 19:17:03;;;;;;;6.65;3.83;;;;;;;25.56;49.60;99924.75;20975911;23;20526;-83
2022/08/25 19:27:05;;;;;;;6.70;3.65;;;;;;;25.27;50.46;99937.97;20841574;28;20057;-84
2022/08/25 19:37:13;;;;;;;6.18;3.60;;;;;;;25.06;51.04;99930.72;20826239;28;20100;-84
2022/08/25 19:47:14;;;;;;;5.93;3.58;;;;;;;24.77;52.53;99933.13;20827515;28;20054;-84
2022/08/25 19:57:16;;;;;;;7.40;4.13;;;;;;;24.48;53.75;99946.22;20821625;28;20123;-84
2022/08/25 20:07:28;;;;;;;9.23;3.60;;;;;;;24.29;53.49;99946.81;20842331;28;20045;-82
2022/08/25 20:17:30;;;;;;;6.38;3.85;;;;;;;24.14;54.20;99948.00;20889804;28;20056;-85
2022/08/25 20:27:32;;;;;;;6.35;3.72;;;;;;;24.06;53.86;99958.50;20900265;28;20489;-86
2022/08/25 20:37:33;;;;;;;7.65;4.00;;;;;;;23.90;54.68;99964.16;20897263;28;20053;-85
2022/08/25 20:47:35;;;;;;;6.63;3.50;;;;;;;23.65;55.74;99959.88;20899773;28;20052;-85
2022/08/25 20:57:38;;;;;;;6.75;3.60;;;;;;;23.69;55.49;99965.84;20897862;28;20151;-84
2022/08/25 21:07:40;;;;;;;8.10;3.75;;;;;;;23.59;56.25;99971.03;20892819;28;20127;-84
2022/08/25 21:17:42;;;;;;;7.97;3.97;;;;;;;23.36;58.12;99958.56;20847342;28;20548;-84
2022/08/25 21:27:43;;;;;;;6.65;3.95;;;;;;;23.09;59.69;99967.66;20837257;28;20069;-85
2022/08/25 21:37:48;;;;;;;6.70;4.22;;;;;;;22.99;59.81;99977.34;20817306;28;20502;-85
2022/08/25 21:47:53;;;;;;;8.30;4.78;;;;;;;22.88;60.70;99977.25;20881086;28;20064;-84
2022/08/25 21:57:55;;;;;;;6.90;3.92;;;;;;;22.56;63.02;99988.44;20838264;28;20132;-85
2022/08/25 22:07:56;;;;;;;9.02;4.43;;;;;;;22.36;63.85;99983.69;20825276;28;20048;-84
2022/08/25 22:17:59;;;;;;;6.60;4.07;;;;;;;22.12;64.23;99978.28;20826553;28;20065;-84
2022/08/25 22:28:01;;;;;;;7.07;4.38;;;;;;;22.02;65.10;99980.72;20808694;28;20068;-84
2022/08/25 22:38:03;;;;;;;9.65;4.13;;;;;;;21.63;67.70;99977.19;20805488;28;20633;-84
2022/08/25 22:48:05;;;;;;;8.52;5.00;;;;;;;21.26;69.62;99971.63;20824640;28;20046;-85
2022/08/25 22:58:06;;;;;;;7.88;4.47;;;;;;;21.30;69.04;99972.28;20835008;28;20062;-84
2022/08/25 23:08:07;;;;;;;8.35;4.80;;;;;;;21.17;70.00;99972.25;20823324;23;20201;-84
2022/08/25 23:18:09;;;;;;;9.35;5.05;;;;;;;21.13;69.82;99965.44;20818320;28;20061;-84
2022/08/25 23:28:11;;;;;;;6.53;4.40;;;;;;;20.98;71.31;99966.44;20834744;28;20052;-84
2022/08/25 23:38:12;;;;;;;7.32;4.60;;;;;;;20.96;71.77;99963.03;20813575;28;20067;-84
2022/08/25 23:48:14;;;;;;;8.85;5.10;;;;;;;20.87;72.71;99952.97;20812657;28;20097;-84
2022/08/25 23:58:19;;;;;;;9.95;5.40;;;;;;;20.64;75.16;99950.00;20812066;28;20064;-85
